Time;durP1;ratioP1;P1;durP2;ratioP2;P2;SDS_P1;SDS_P2;PMS_P1;PMS_P2;Temp;Humidity;BMP_temperature;BMP_pressure;BME280_temperature;BME280_humidity;BME280_pressure;Samples;Min_cycle;Max_cycle;Signal;HPM_P1;HPM_P2
2022/07/22 00:03:27;;;;;;;7.10;5.25;;;;;;;20.90;57.86;97072.41;4941646;29;20109;-81
2022/07/22 01:19:10;;;;;;;7.20;4.95;;;;;;;20.36;59.55;97037.34;4985711;23;20100;-81
2022/07/22 01:24:48;;;;;;;6.53;5.13;;;;;;;20.27;59.37;97041.38;4903950;29;20044;-80
2022/07/22 01:27:26;;;;;;;6.65;5.80;;;;;;;20.20;59.70;97038.84;4904140;29;20093;-79
2022/07/22 01:30:08;;;;;;;7.10;5.88;;;;;;;20.14;59.73;97037.16;4960350;23;20048;-81
2022/07/22 01:36:10;;;;;;;6.65;5.97;;;;;;;20.01;60.63;97034.75;5109891;23;20074;-79
2022/07/22 01:38:52;;;;;;;9.98;6.05;;;;;;;20.01;60.51;97026.81;5093237;23;20059;-79
2022/07/22 01:41:26;;;;;;;7.32;5.57;;;;;;;20.00;60.37;97028.63;4924952;29;20062;-79
2022/07/22 01:44:06;;;;;;;7.43;5.93;;;;;;;19.99;60.48;97031.53;4939622;29;20036;-79
2022/07/22 01:46:49;;;;;;;6.18;5.50;;;;;;;20.05;61.29;97031.41;4939928;29;20038;-78
2022/07/22 01:49:34;;;;;;;8.77;5.82;;;;;;;20.10;60.59;97028.06;4939446;29;20041;-80
2022/07/22 01:52:18;;;;;;;6.95;6.32;;;;;;;20.11;60.35;97029.66;4939774;29;20079;-79
2022/07/22 01:55:52;;;;;;;7.00;6.30;;;;;;;20.08;60.55;97036.22;4935036;29;20032;-79
2022/07/22 02:33:44;;;;;;;6.47;5.88;;;;;;;19.99;60.91;97027.03;4886088;29;20053;-79
2022/07/22 02:40:27;;;;;;;6.00;5.43;;;;;;;19.84;61.11;97026.69;4848689;29;20054;-79
2022/07/22 03:51:16;;;;;;;6.75;5.57;;;;;;;19.31;63.31;97037.06;4142740;23;20040;-79
2022/07/22 03:54:10;;;;;;;6.90;6.22;;;;;;;19.33;62.93;97036.84;4962597;29;20035;-79
2022/07/22 03:57:09;;;;;;;7.18;6.47;;;;;;;19.39;63.05;97035.09;5031873;23;20056;-80
2022/07/22 04:08:45;;;;;;;7.45;6.38;;;;;;;19.55;62.91;97042.41;4905193;29;20081;-79
2022/07/22 04:11:19;;;;;;;6.45;5.80;;;;;;;19.55;62.93;97042.41;4911367;23;20061;-77
2022/07/22 04:13:47;;;;;;;6.65;6.03;;;;;;;19.53;62.33;97044.47;4888448;29;20049;-79
2022/07/22 04:16:14;;;;;;;7.25;5.97;;;;;;;19.51;62.51;97038.59;4887745;29;20095;-79
2022/07/22 04:18:42;;;;;;;6.38;5.72;;;;;;;19.51;62.71;97041.25;4887362;29;20172;-80
2022/07/22 04:21:10;;;;;;;9.30;6.15;;;;;;;19.55;62.64;97042.41;4887157;29;20083;-77
2022/07/22 04:23:39;;;;;;;8.20;6.35;;;;;;;19.58;62.88;97038.50;4887761;29;20053;-78
2022/07/22 04:26:07;;;;;;;8.35;6.40;;;;;;;19.55;62.25;97037.09;4887336;29;20078;-80
2022/07/22 04:28:34;;;;;;;6.85;6.22;;;;;;;19.49;62.29;97038.00;4887976;29;20053;-78
2022/07/22 04:31:02;;;;;;;7.93;6.32;;;;;;;19.43;62.10;97038.91;4887197;29;20053;-80
2022/07/22 04:33:30;;;;;;;6.97;6.25;;;;;;;19.40;62.36;97039.38;4887927;29;20133;-82
2022/07/22 04:35:57;;;;;;;6.95;5.72;;;;;;;19.37;62.34;97034.53;4887493;29;20506;-79
2022/07/22 04:38:25;;;;;;;9.00;6.85;;;;;;;19.32;62.62;97027.28;4888494;29;20082;-82
2022/07/22 04:40:54;;;;;;;9.60;6.50;;;;;;;19.28;63.11;97029.56;4887838;29;20433;-80
2022/07/22 04:43:22;;;;;;;8.70;7.32;;;;;;;19.24;62.90;97030.25;4889517;29;20064;-79
2022/07/22 04:45:50;;;;;;;6.97;6.38;;;;;;;19.21;63.39;97031.50;4888957;29;20057;-80
2022/07/22 04:48:18;;;;;;;10.02;6.53;;;;;;;19.23;63.63;97028.63;4890367;29;20481;-80
2022/07/22 04:50:46;;;;;;;8.68;6.60;;;;;;;19.24;63.50;97025.78;4887698;29;20057;-78
2022/07/22 04:53:13;;;;;;;8.23;6.72;;;;;;;19.26;63.43;97033.47;4887988;29;20068;-78
2022/07/22 04:55:41;;;;;;;17.10;6.88;;;;;;;19.27;63.70;97027.16;4887503;29;20057;-79
2022/07/22 04:58:10;;;;;;;7.68;6.03;;;;;;;19.27;63.42;97030.59;4887391;29;20057;-80
2022/07/22 05:00:44;;;;;;;7.60;6.80;;;;;;;19.28;63.62;97032.19;4886523;29;20109;-78
2022/07/22 05:03:11;;;;;;;8.48;6.70;;;;;;;19.29;63.45;97027.75;4887073;29;20533;-82
2022/07/22 05:05:39;;;;;;;11.45;7.60;;;;;;;19.31;63.45;97023.03;4887189;29;20088;-78
2022/07/22 05:08:06;;;;;;;8.57;7.15;;;;;;;19.33;63.34;97029.69;4888273;29;20080;-79
2022/07/22 05:10:34;;;;;;;7.80;7.00;;;;;;;19.38;63.47;97030.88;4886304;29;20125;-78
2022/07/22 05:13:01;;;;;;;12.75;7.82;;;;;;;19.41;63.36;97027.75;4886668;29;20089;-81
2022/07/22 05:15:30;;;;;;;8.82;7.18;;;;;;;19.46;63.16;97027.88;4884097;29;20057;-79
2022/07/22 05:17:58;;;;;;;7.32;6.63;;;;;;;19.55;65.70;97027.31;4883388;29;20049;-78
2022/07/22 05:20:25;;;;;;;8.02;6.60;;;;;;;19.64;64.76;97024.34;4882909;29;20053;-79
2022/07/22 05:22:53;;;;;;;6.75;6.03;;;;;;;19.70;64.57;97023.44;4882891;29;20213;-80
2022/07/22 05:25:22;;;;;;;6.70;6.05;;;;;;;19.77;64.57;97021.50;4882802;29;20065;-83
2022/07/22 05:27:54;;;;;;;8.73;6.85;;;;;;;19.79;63.46;97022.09;4882406;29;20136;-78
2022/07/22 05:30:22;;;;;;;8.10;6.75;;;;;;;19.75;63.16;97027.03;4885375;29;20151;-81
2022/07/22 05:32:53;;;;;;;7.30;6.60;;;;;;;19.78;63.33;97019.66;4887812;29;20063;-80
2022/07/22 05:35:21;;;;;;;7.18;6.50;;;;;;;19.78;63.02;97023.09;4887324;29;20090;-82
2022/07/22 05:37:49;;;;;;;9.98;7.28;;;;;;;19.79;63.04;97015.97;4887356;29;20140;-84
2022/07/22 05:40:16;;;;;;;8.85;7.60;;;;;;;19.81;63.16;97019.19;4886806;29;20077;-81
2022/07/22 05:42:44;;;;;;;7.57;6.47;;;;;;;19.86;64.46;97017.47;4888066;29;20086;-80
2022/07/22 05:45:11;;;;;;;10.60;7.05;;;;;;;19.93;65.03;97020.00;4886797;29;20060;-80
2022/07/22 05:47:39;;;;;;;10.57;7.45;;;;;;;20.02;64.60;97021.25;4885285;29;20109;-79
2022/07/22 05:50:09;;;;;;;11.32;8.02;;;;;;;20.08;64.80;97024.84;4885373;29;20091;-80
2022/07/22 05:52:37;;;;;;;9.15;7.50;;;;;;;20.13;65.14;97028.38;4886306;29;20077;-79
2022/07/22 05:55:05;;;;;;;8.82;7.22;;;;;;;20.20;65.08;97020.31;4885757;29;20064;-79
2022/07/22 05:57:33;;;;;;;10.27;8.23;;;;;;;20.28;65.59;97016.50;4885487;29;20053;-79
2022/07/22 06:00:01;;;;;;;8.23;7.43;;;;;;;20.34;64.91;97023.53;4885858;29;20052;-81
2022/07/22 06:02:29;;;;;;;10.52;7.50;;;;;;;20.39;64.35;97026.28;4882558;29;20484;-77
2022/07/22 06:04:56;;;;;;;10.10;7.63;;;;;;;20.44;64.47;97022.91;4882315;29;20090;-79
2022/07/22 06:07:26;;;;;;;9.57;8.60;;;;;;;20.48;63.72;97029.38;4884239;29;20049;-78
2022/07/22 06:09:54;;;;;;;7.97;7.20;;;;;;;20.52;64.98;97023.34;4884784;29;20579;-79
2022/07/22 06:12:21;;;;;;;8.93;8.02;;;;;;;20.58;64.54;97025.09;4884741;29;20053;-78
2022/07/22 06:14:49;;;;;;;8.90;7.45;;;;;;;20.63;64.12;97031.56;4885507;29;20044;-80
2022/07/22 06:17:16;;;;;;;8.73;7.65;;;;;;;20.69;64.06;97025.31;4885266;29;20429;-79
2022/07/22 06:19:44;;;;;;;9.43;7.53;;;;;;;20.72;64.21;97024.84;4886310;29;20049;-78
2022/07/22 06:22:12;;;;;;;8.82;7.72;;;;;;;20.79;64.10;97028.13;4885078;29;20505;-80
2022/07/22 06:24:40;;;;;;;9.27;7.35;;;;;;;20.81;63.06;97025.25;4885285;29;20117;-79
2022/07/22 06:27:08;;;;;;;11.50;8.15;;;;;;;20.83;62.07;97018.69;4885238;29;20045;-82
2022/07/22 06:29:36;;;;;;;9.60;8.73;;;;;;;20.84;61.43;97022.94;4886158;29;20125;-80
2022/07/22 06:32:04;;;;;;;9.77;7.72;;;;;;;20.87;61.86;97021.66;4885201;29;20109;-79
2022/07/22 06:34:31;;;;;;;9.02;7.63;;;;;;;20.90;61.58;97016.72;4885348;29;20121;-79
2022/07/22 06:36:59;;;;;;;9.45;7.95;;;;;;;20.94;61.13;97022.31;4885499;29;20077;-80
2022/07/22 06:39:27;;;;;;;11.98;8.35;;;;;;;20.97;61.04;97017.34;4886687;29;20048;-80
2022/07/22 06:41:56;;;;;;;7.10;6.30;;;;;;;21.04;62.46;97021.72;4889562;29;20057;-80
2022/07/22 06:44:23;;;;;;;9.73;8.02;;;;;;;21.10;61.42;97020.75;4890757;29;20064;-80
2022/07/22 06:46:51;;;;;;;8.90;8.00;;;;;;;21.15;61.23;97018.19;4887813;29;20072;-82
2022/07/22 06:49:19;;;;;;;10.48;7.72;;;;;;;21.20;60.68;97026.22;4888096;29;20139;-80
2022/07/22 06:51:51;;;;;;;9.50;8.60;;;;;;;21.26;60.61;97025.28;4887757;29;20505;-78
2022/07/22 06:54:18;;;;;;;12.10;8.63;;;;;;;21.30;60.36;97021.09;4888161;29;20049;-78
2022/07/22 06:56:46;;;;;;;15.30;8.75;;;;;;;21.36;60.14;97022.81;4887176;29;20064;-79
2022/07/22 06:59:15;;;;;;;9.25;8.25;;;;;;;21.46;60.48;97029.34;4889476;29;20540;-79
2022/07/22 07:01:42;;;;;;;10.52;9.13;;;;;;;21.53;60.26;97020.16;4891279;29;20437;-80
2022/07/22 07:04:12;;;;;;;11.05;9.07;;;;;;;21.59;59.89;97024.53;4891973;29;20056;-79
2022/07/22 07:06:41;;;;;;;11.15;8.75;;;;;;;21.65;59.65;97022.75;4891103;29;20057;-79
2022/07/22 07:09:08;;;;;;;10.50;8.63;;;;;;;;;;4891660;29;20487;-80
2022/07/22 07:11:36;;;;;;;11.15;8.43;;;;;;;21.81;59.97;97021.94;4890777;29;20087;-80
2022/07/22 07:14:04;;;;;;;10.95;7.65;;;;;;;21.90;60.06;97024.19;4891992;29;20056;-79
2022/07/22 07:16:33;;;;;;;8.48;7.57;;;;;;;21.97;59.36;97019.50;4891283;29;20076;-79
2022/07/22 07:19:01;;;;;;;8.85;7.95;;;;;;;22.05;59.73;97015.63;4891364;29;20077;-80
2022/07/22 07:21:29;;;;;;;11.43;7.63;;;;;;;22.13;59.65;97013.34;4890827;29;20057;-79
2022/07/22 07:23:58;;;;;;;8.43;7.53;;;;;;;22.21;59.49;97010.28;4890739;29;20060;-80
2022/07/22 07:26:25;;;;;;;9.25;8.25;;;;;;;22.30;59.33;97015.19;4891310;29;20052;-78
2022/07/22 07:28:53;;;;;;;12.85;8.77;;;;;;;22.40;59.51;97008.13;4891294;29;20080;-79
2022/07/22 07:31:21;;;;;;;9.63;7.65;;;;;;;22.50;59.18;97007.47;4890126;29;20061;-83
2022/07/22 07:33:51;;;;;;;9.32;7.65;;;;;;;22.58;59.16;97001.69;4890473;29;20312;-81
2022/07/22 07:36:18;;;;;;;8.77;7.72;;;;;;;22.67;58.84;97001.25;4890921;29;20071;-80
2022/07/22 07:38:46;;;;;;;12.68;8.73;;;;;;;22.76;58.53;97005.91;4891507;29;20057;-80
2022/07/22 07:41:14;;;;;;;8.35;7.40;;;;;;;22.84;58.84;96996.66;4892483;29;20053;-78
2022/07/22 07:43:42;;;;;;;10.88;8.43;;;;;;;22.93;58.48;96995.16;4900372;29;20045;-79
2022/07/22 07:46:09;;;;;;;10.25;7.93;;;;;;;23.02;58.33;96993.69;4895258;29;20078;-80
2022/07/22 07:48:37;;;;;;;10.02;7.43;;;;;;;23.13;58.23;97001.75;4892148;29;20057;-79
2022/07/22 07:51:07;;;;;;;8.80;7.97;;;;;;;23.22;57.11;96989.59;4891383;29;20076;-80
2022/07/22 07:53:34;;;;;;;8.70;7.57;;;;;;;23.30;57.40;96989.13;4890433;29;20093;-77
2022/07/22 07:56:02;;;;;;;9.18;8.25;;;;;;;23.40;57.35;96986.56;4890537;29;20049;-79
2022/07/22 07:58:30;;;;;;;8.68;6.78;;;;;;;23.50;57.36;96987.69;4888649;29;20053;-77
2022/07/22 08:01:05;;;;;;;8.90;7.00;;;;;;;23.60;57.21;96987.78;4887066;29;20057;-79
2022/07/22 08:03:33;;;;;;;11.13;6.95;;;;;;;23.67;56.90;96972.38;4886972;29;20056;-79
2022/07/22 08:06:01;;;;;;;6.93;6.22;;;;;;;23.79;56.38;96981.00;4886909;29;20049;-81
2022/07/22 08:08:30;;;;;;;8.57;6.95;;;;;;;23.89;56.33;96971.47;4887236;29;20493;-79
2022/07/22 08:10:57;;;;;;;8.20;6.38;;;;;;;23.99;55.82;96975.00;4887133;29;20057;-80
2022/07/22 08:13:28;;;;;;;9.90;7.30;;;;;;;24.11;55.86;96977.44;4889342;29;20049;-80
2022/07/22 08:15:56;;;;;;;9.82;7.13;;;;;;;24.21;55.15;96968.72;4889516;29;20523;-80
2022/07/22 08:18:25;;;;;;;9.82;6.57;;;;;;;24.29;54.65;96962.84;4888693;29;20502;-78
2022/07/22 08:20:52;;;;;;;7.45;6.75;;;;;;;24.39;54.58;96968.22;4889137;29;20084;-80
2022/07/22 08:23:20;;;;;;;7.32;6.63;;;;;;;24.50;54.15;96968.31;4890268;29;20053;-80
2022/07/22 08:25:49;;;;;;;8.65;7.70;;;;;;;24.60;53.86;96971.81;4890387;29;20116;-81
2022/07/22 08:28:17;;;;;;;7.90;7.10;;;;;;;24.68;53.63;96968.59;4890457;29;20056;-80
2022/07/22 08:30:44;;;;;;;7.13;6.50;;;;;;;24.79;53.46;96966.78;4889447;29;20060;-80
2022/07/22 08:33:12;;;;;;;8.38;7.00;;;;;;;24.89;52.90;96966.00;4889279;29;20060;-80
2022/07/22 08:35:39;;;;;;;8.05;6.93;;;;;;;24.98;52.44;96959.06;4889517;29;20081;-81
2022/07/22 08:38:07;;;;;;;7.30;6.13;;;;;;;25.09;52.16;96957.22;4889688;29;20406;-79
2022/07/22 08:40:35;;;;;;;6.85;6.15;;;;;;;25.19;51.92;96961.75;4888674;29;20136;-80
2022/07/22 08:43:04;;;;;;;8.65;6.28;;;;;;;25.27;51.33;96963.91;4889224;29;20136;-80
2022/07/22 08:45:33;;;;;;;8.15;6.97;;;;;;;25.37;51.41;96961.25;4888944;29;20056;-79
2022/07/22 08:48:02;;;;;;;7.45;6.70;;;;;;;25.47;51.40;96961.25;4889367;29;20426;-80
2022/07/22 08:50:31;;;;;;;7.43;6.57;;;;;;;25.57;50.76;96964.97;4887951;29;20129;-80
2022/07/22 08:52:58;;;;;;;7.35;6.43;;;;;;;25.63;49.69;96963.91;4887784;29;20502;-81
2022/07/22 08:55:26;;;;;;;6.47;5.85;;;;;;;25.71;49.63;96958.00;4887737;29;20081;-79
2022/07/22 08:57:54;;;;;;;6.93;6.22;;;;;;;25.79;49.20;96954.78;4890005;29;20101;-82
2022/07/22 09:00:23;;;;;;;6.32;5.72;;;;;;;25.88;48.55;96952.38;4890375;29;20057;-82
2022/07/22 09:02:51;;;;;;;9.60;5.75;;;;;;;25.96;48.21;96959.06;4890535;29;20049;-81
2022/07/22 09:05:19;;;;;;;6.47;5.93;;;;;;;26.04;48.18;96948.59;4889513;29;20076;-81
2022/07/22 09:08:06;;;;;;;9.75;6.22;;;;;;;26.15;48.00;96948.53;4889400;29;20056;-82
2022/07/22 09:10:36;;;;;;;6.55;5.80;;;;;;;26.24;47.34;96950.41;4889298;29;20049;-80
2022/07/22 09:13:05;;;;;;;7.68;5.82;;;;;;;26.33;46.92;96939.09;4889654;29;20105;-79
2022/07/22 09:15:36;;;;;;;9.02;5.53;;;;;;;26.40;46.09;96936.94;4890536;29;20091;-83
2022/07/22 09:18:05;;;;;;;6.13;5.60;;;;;;;26.49;46.55;96935.28;4889158;29;20060;-78
2022/07/22 09:20:34;;;;;;;6.45;5.70;;;;;;;26.57;46.50;96928.59;4889394;29;20124;-82
2022/07/22 09:23:09;;;;;;;6.40;5.80;;;;;;;26.66;45.77;96941.13;4889038;29;20418;-81
2022/07/22 09:25:38;;;;;;;5.78;5.28;;;;;;;26.74;45.33;96933.56;4889468;29;20143;-80
2022/07/22 09:28:15;;;;;;;6.30;5.32;;;;;;;26.79;45.08;96926.31;4888109;29;20132;-80
2022/07/22 09:30:53;;;;;;;6.65;6.00;;;;;;;26.88;44.95;96915.81;4889484;29;20089;-80
2022/07/22 09:33:24;;;;;;;6.38;5.35;;;;;;;26.96;45.45;96917.09;4888753;29;20057;-81
2022/07/22 09:36:01;;;;;;;8.07;6.10;;;;;;;27.03;44.22;96921.06;4889305;29;20061;-80
2022/07/22 09:38:31;;;;;;;6.32;5.72;;;;;;;27.09;43.99;96919.94;4888715;29;20048;-81
2022/07/22 09:40:59;;;;;;;6.45;5.75;;;;;;;27.17;44.42;96912.38;4890092;29;20053;-81
2022/07/22 09:43:32;;;;;;;9.00;5.90;;;;;;;27.27;44.23;96902.41;4889672;29;20498;-81
2022/07/22 09:46:01;;;;;;;14.05;6.22;;;;;;;27.36;44.30;96912.53;4890452;29;20072;-82
2022/07/22 09:48:29;;;;;;;6.05;5.43;;;;;;;27.44;43.66;96904.66;4890422;29;20060;-81
2022/07/22 09:50:58;;;;;;;7.93;5.90;;;;;;;27.52;43.50;96900.56;4888489;29;20061;-79
2022/07/22 09:53:29;;;;;;;6.05;5.47;;;;;;;27.59;42.32;96906.38;4887795;29;20056;-81
2022/07/22 09:55:57;;;;;;;6.25;5.40;;;;;;;27.66;41.73;96900.66;4887167;29;20049;-80
2022/07/22 09:58:26;;;;;;;5.25;4.75;;;;;;;27.73;42.02;96901.16;4888662;29;20422;-80
2022/07/22 10:00:58;;;;;;;5.13;4.72;;;;;;;27.79;41.46;96902.69;4887102;29;20060;-79
2022/07/22 10:03:31;;;;;;;5.93;5.43;;;;;;;27.86;41.77;96905.06;4887165;29;20056;-81
2022/07/22 10:05:59;;;;;;;6.53;4.70;;;;;;;27.96;41.28;96902.25;4886852;29;20116;-80
2022/07/22 10:08:28;;;;;;;6.63;5.15;;;;;;;28.04;40.92;96900.81;4887815;29;20546;-82
2022/07/22 13:53:32;;;;;;;5.07;4.43;;;;;;;31.05;32.76;96681.03;1062488;23;20332;-86
2022/07/22 21:28:13;;;;;;;6.15;5.50;;;;;;;25.80;47.54;96779.22;5016353;23;20064;-81
2022/07/22 21:30:53;;;;;;;6.80;6.00;;;;;;;25.76;47.39;96773.63;4903941;29;20081;-81
2022/07/22 21:33:36;;;;;;;6.10;5.50;;;;;;;25.73;47.78;96770.69;4904236;29;20040;-79
2022/07/22 21:39:05;;;;;;;5.90;5.30;;;;;;;25.63;47.99;96782.25;5365851;23;20053;-79
2022/07/22 21:50:30;;;;;;;10.23;6.57;;;;;;;25.48;49.20;96810.59;5277602;23;20035;-85
2022/07/22 21:53:06;;;;;;;6.90;6.30;;;;;;;25.49;49.08;96816.75;4883787;29;20078;-80
2022/07/22 22:58:05;;;;;;;6.88;5.95;;;;;;;25.31;50.62;96769.28;4987338;23;20068;-80
2022/07/22 23:00:41;;;;;;;6.80;6.00;;;;;;;25.23;50.59;96757.28;4906411;29;20066;-80
2022/07/22 23:03:21;;;;;;;5.95;5.32;;;;;;;25.16;50.93;96756.75;4906194;29;20041;-80
2022/07/22 23:09:23;;;;;;;6.57;5.93;;;;;;;25.00;51.29;96754.09;5460470;23;20210;-79
2022/07/22 23:12:28;;;;;;;7.78;6.05;;;;;;;24.96;51.52;96757.59;4959780;23;20036;-79
2022/07/22 23:18:04;;;;;;;6.25;5.65;;;;;;;24.96;51.23;96789.63;4969546;23;20057;-79
2022/07/22 23:23:38;;;;;;;8.27;6.03;;;;;;;24.97;50.51;96762.66;5386898;23;20047;-80
2022/07/22 23:48:46;;;;;;;5.95;5.35;;;;;;;24.95;48.86;96735.44;4922605;29;20090;-81
